sensor_id;sensor_type;location;lat;lon;timestamp;P1;durP1;ratioP1;P2;durP2;ratioP2
6043;SDS011;3050;42.660;23.276;2023-11-19T00:01:17;1.07;;;1.00;;
6043;SDS011;3050;42.660;23.276;2023-11-19T00:03:46;2.47;;;1.00;;
6043;SDS011;3050;42.660;23.276;2023-11-19T00:06:19;0.40;;;0.40;;
6043;SDS011;3050;42.660;23.276;2023-11-19T00:08:56;1.27;;;1.20;;
6043;SDS011;3050;42.660;23.276;2023-11-19T00:11:29;1.60;;;1.47;;
6043;SDS011;3050;42.660;23.276;2023-11-19T00:14:04;1.40;;;1.30;;
6043;SDS011;3050;42.660;23.276;2023-11-19T00:16:35;1.80;;;1.53;;
6043;SDS011;3050;42.660;23.276;2023-11-19T00:19:04;3.70;;;1.50;;
6043;SDS011;3050;42.660;23.276;2023-11-19T00:21:46;1.23;;;1.23;;
6043;SDS011;3050;42.660;23.276;2023-11-19T00:24:16;1.17;;;1.17;;
6043;SDS011;3050;42.660;23.276;2023-11-19T00:26:45;1.67;;;1.00;;
6043;SDS011;3050;42.660;23.276;2023-11-19T00:29:17;1.60;;;1.50;;
6043;SDS011;3050;42.660;23.276;2023-11-19T00:31:49;1.17;;;0.93;;
6043;SDS011;3050;42.660;23.276;2023-11-19T00:34:17;1.37;;;1.27;;
6043;SDS011;3050;42.660;23.276;2023-11-19T00:36:48;1.50;;;1.20;;
6043;SDS011;3050;42.660;23.276;2023-11-19T00:39:20;1.90;;;1.13;;
6043;SDS011;3050;42.660;23.276;2023-11-19T00:44:25;0.67;;;0.67;;
6043;SDS011;3050;42.660;23.276;2023-11-19T00:46:52;2.57;;;1.27;;
6043;SDS011;3050;42.660;23.276;2023-11-19T00:49:21;1.20;;;1.20;;
6043;SDS011;3050;42.660;23.276;2023-11-19T00:51:49;1.00;;;1.00;;
6043;SDS011;3050;42.660;23.276;2023-11-19T00:54:18;1.07;;;1.07;;
6043;SDS011;3050;42.660;23.276;2023-11-19T00:56:46;0.80;;;0.80;;
6043;SDS011;3050;42.660;23.276;2023-11-19T00:59:20;1.50;;;1.40;;
6043;SDS011;3050;42.660;23.276;2023-11-19T01:05:07;1.20;;;1.10;;
6043;SDS011;3050;42.660;23.276;2023-11-19T01:07:39;1.37;;;1.37;;
6043;SDS011;3050;42.660;23.276;2023-11-19T01:10:09;0.80;;;0.80;;
6043;SDS011;3050;42.660;23.276;2023-11-19T01:12:38;1.33;;;1.33;;
6043;SDS011;3050;42.660;23.276;2023-11-19T01:15:10;1.90;;;0.90;;
6043;SDS011;3050;42.660;23.276;2023-11-19T01:17:41;1.63;;;1.53;;
6043;SDS011;3050;42.660;23.276;2023-11-19T01:20:09;1.10;;;1.10;;
6043;SDS011;3050;42.660;23.276;2023-11-19T01:22:38;2.03;;;1.50;;
6043;SDS011;3050;42.660;23.276;2023-11-19T01:25:09;0.63;;;0.37;;
6043;SDS011;3050;42.660;23.276;2023-11-19T01:27:38;1.23;;;1.17;;
6043;SDS011;3050;42.660;23.276;2023-11-19T01:30:10;1.03;;;1.03;;
6043;SDS011;3050;42.660;23.276;2023-11-19T01:32:39;1.47;;;1.37;;
6043;SDS011;3050;42.660;23.276;2023-11-19T01:35:08;1.30;;;1.17;;
6043;SDS011;3050;42.660;23.276;2023-11-19T01:37:36;1.40;;;1.40;;
6043;SDS011;3050;42.660;23.276;2023-11-19T01:40:03;1.50;;;1.33;;
6043;SDS011;3050;42.660;23.276;2023-11-19T01:42:38;0.70;;;0.70;;
6043;SDS011;3050;42.660;23.276;2023-11-19T01:45:27;1.03;;;0.93;;
6043;SDS011;3050;42.660;23.276;2023-11-19T01:47:58;2.13;;;0.83;;
6043;SDS011;3050;42.660;23.276;2023-11-19T01:50:29;1.10;;;1.10;;
6043;SDS011;3050;42.660;23.276;2023-11-19T01:52:58;1.07;;;1.07;;
6043;SDS011;3050;42.660;23.276;2023-11-19T01:55:29;1.40;;;1.40;;
6043;SDS011;3050;42.660;23.276;2023-11-19T01:57:59;0.90;;;0.80;;
6043;SDS011;3050;42.660;23.276;2023-11-19T02:00:28;0.90;;;0.90;;
6043;SDS011;3050;42.660;23.276;2023-11-19T02:03:02;0.70;;;0.70;;
6043;SDS011;3050;42.660;23.276;2023-11-19T02:05:32;1.30;;;1.00;;
6043;SDS011;3050;42.660;23.276;2023-11-19T02:08:00;0.90;;;0.90;;
6043;SDS011;3050;42.660;23.276;2023-11-19T02:10:29;0.73;;;0.73;;
6043;SDS011;3050;42.660;23.276;2023-11-19T02:12:57;1.23;;;1.17;;
6043;SDS011;3050;42.660;23.276;2023-11-19T02:15:28;3.30;;;0.60;;
6043;SDS011;3050;42.660;23.276;2023-11-19T02:17:56;0.63;;;0.63;;
6043;SDS011;3050;42.660;23.276;2023-11-19T02:20:25;0.80;;;0.80;;
6043;SDS011;3050;42.660;23.276;2023-11-19T02:22:52;1.50;;;1.13;;
6043;SDS011;3050;42.660;23.276;2023-11-19T02:25:25;0.70;;;0.67;;
6043;SDS011;3050;42.660;23.276;2023-11-19T02:28:02;0.83;;;0.83;;
6043;SDS011;3050;42.660;23.276;2023-11-19T02:30:30;0.83;;;0.83;;
6043;SDS011;3050;42.660;23.276;2023-11-19T02:32:59;1.20;;;1.20;;
6043;SDS011;3050;42.660;23.276;2023-11-19T02:35:31;1.27;;;0.97;;
6043;SDS011;3050;42.660;23.276;2023-11-19T02:37:58;1.13;;;1.03;;
6043;SDS011;3050;42.660;23.276;2023-11-19T02:40:29;0.90;;;0.90;;
6043;SDS011;3050;42.660;23.276;2023-11-19T02:43:01;1.17;;;1.17;;
6043;SDS011;3050;42.660;23.276;2023-11-19T02:45:30;1.10;;;1.10;;
6043;SDS011;3050;42.660;23.276;2023-11-19T02:47:59;0.60;;;0.60;;
6043;SDS011;3050;42.660;23.276;2023-11-19T02:50:28;1.67;;;1.37;;
6043;SDS011;3050;42.660;23.276;2023-11-19T02:52:56;1.07;;;1.07;;
6043;SDS011;3050;42.660;23.276;2023-11-19T02:55:24;1.00;;;1.00;;
6043;SDS011;3050;42.660;23.276;2023-11-19T02:57:55;1.13;;;1.03;;
6043;SDS011;3050;42.660;23.276;2023-11-19T03:00:29;1.13;;;1.03;;
6043;SDS011;3050;42.660;23.276;2023-11-19T03:03:04;1.13;;;1.00;;
6043;SDS011;3050;42.660;23.276;2023-11-19T03:05:43;0.73;;;0.73;;
6043;SDS011;3050;42.660;23.276;2023-11-19T03:08:14;0.73;;;0.73;;
6043;SDS011;3050;42.660;23.276;2023-11-19T03:10:44;2.70;;;1.00;;
6043;SDS011;3050;42.660;23.276;2023-11-19T03:13:13;1.10;;;1.10;;
6043;SDS011;3050;42.660;23.276;2023-11-19T03:15:44;0.90;;;0.90;;
6043;SDS011;3050;42.660;23.276;2023-11-19T03:18:12;2.57;;;1.20;;
6043;SDS011;3050;42.660;23.276;2023-11-19T03:20:41;1.30;;;1.20;;
6043;SDS011;3050;42.660;23.276;2023-11-19T03:23:10;0.80;;;0.80;;
6043;SDS011;3050;42.660;23.276;2023-11-19T03:25:38;0.70;;;0.70;;
6043;SDS011;3050;42.660;23.276;2023-11-19T03:28:10;1.53;;;0.80;;
6043;SDS011;3050;42.660;23.276;2023-11-19T03:30:37;0.77;;;0.77;;
6043;SDS011;3050;42.660;23.276;2023-11-19T03:33:11;1.00;;;1.00;;
6043;SDS011;3050;42.660;23.276;2023-11-19T03:35:38;7.20;;;1.43;;
6043;SDS011;3050;42.660;23.276;2023-11-19T03:38:09;0.67;;;0.67;;
6043;SDS011;3050;42.660;23.276;2023-11-19T03:40:38;1.17;;;1.17;;
6043;SDS011;3050;42.660;23.276;2023-11-19T03:43:06;1.40;;;1.40;;
6043;SDS011;3050;42.660;23.276;2023-11-19T03:45:34;1.27;;;1.27;;
6043;SDS011;3050;42.660;23.276;2023-11-19T03:48:02;1.70;;;1.17;;
6043;SDS011;3050;42.660;23.276;2023-11-19T03:50:35;0.90;;;0.90;;
6043;SDS011;3050;42.660;23.276;2023-11-19T03:53:03;0.70;;;0.70;;
6043;SDS011;3050;42.660;23.276;2023-11-19T03:55:31;0.87;;;0.87;;
6043;SDS011;3050;42.660;23.276;2023-11-19T03:57:59;1.30;;;1.20;;
6043;SDS011;3050;42.660;23.276;2023-11-19T04:00:27;1.60;;;1.50;;
6043;SDS011;3050;42.660;23.276;2023-11-19T04:02:56;6.73;;;1.10;;
6043;SDS011;3050;42.660;23.276;2023-11-19T04:05:24;0.80;;;0.80;;
6043;SDS011;3050;42.660;23.276;2023-11-19T04:07:53;1.00;;;0.90;;
6043;SDS011;3050;42.660;23.276;2023-11-19T04:10:25;1.10;;;1.10;;
6043;SDS011;3050;42.660;23.276;2023-11-19T04:12:52;2.10;;;0.87;;
6043;SDS011;3050;42.660;23.276;2023-11-19T04:15:20;1.73;;;1.67;;
6043;SDS011;3050;42.660;23.276;2023-11-19T04:17:49;1.47;;;1.37;;
6043;SDS011;3050;42.660;23.276;2023-11-19T04:20:19;0.93;;;0.93;;
6043;SDS011;3050;42.660;23.276;2023-11-19T04:22:49;1.20;;;1.20;;
6043;SDS011;3050;42.660;23.276;2023-11-19T04:25:20;0.83;;;0.83;;
6043;SDS011;3050;42.660;23.276;2023-11-19T04:27:50;1.10;;;1.00;;
6043;SDS011;3050;42.660;23.276;2023-11-19T04:30:19;1.80;;;0.70;;
6043;SDS011;3050;42.660;23.276;2023-11-19T04:32:48;0.80;;;0.80;;
6043;SDS011;3050;42.660;23.276;2023-11-19T04:35:17;1.10;;;1.10;;
6043;SDS011;3050;42.660;23.276;2023-11-19T04:37:46;2.70;;;1.50;;
6043;SDS011;3050;42.660;23.276;2023-11-19T04:40:14;0.63;;;0.63;;
6043;SDS011;3050;42.660;23.276;2023-11-19T04:42:46;2.00;;;1.17;;
6043;SDS011;3050;42.660;23.276;2023-11-19T04:45:14;0.90;;;0.87;;
6043;SDS011;3050;42.660;23.276;2023-11-19T04:47:44;1.47;;;1.33;;
6043;SDS011;3050;42.660;23.276;2023-11-19T04:50:14;1.23;;;1.13;;
6043;SDS011;3050;42.660;23.276;2023-11-19T04:52:41;1.20;;;1.20;;
6043;SDS011;3050;42.660;23.276;2023-11-19T04:55:10;0.90;;;0.90;;
6043;SDS011;3050;42.660;23.276;2023-11-19T04:57:39;1.13;;;1.07;;
6043;SDS011;3050;42.660;23.276;2023-11-19T05:00:13;1.80;;;1.67;;
6043;SDS011;3050;42.660;23.276;2023-11-19T05:02:41;2.37;;;1.27;;
6043;SDS011;3050;42.660;23.276;2023-11-19T05:05:09;0.60;;;0.60;;
6043;SDS011;3050;42.660;23.276;2023-11-19T05:07:39;1.23;;;1.03;;
6043;SDS011;3050;42.660;23.276;2023-11-19T05:10:07;0.90;;;0.90;;
6043;SDS011;3050;42.660;23.276;2023-11-19T05:12:36;0.80;;;0.80;;
6043;SDS011;3050;42.660;23.276;2023-11-19T05:15:07;0.73;;;0.73;;
6043;SDS011;3050;42.660;23.276;2023-11-19T05:17:39;0.60;;;0.60;;
6043;SDS011;3050;42.660;23.276;2023-11-19T05:20:08;1.07;;;1.07;;
6043;SDS011;3050;42.660;23.276;2023-11-19T05:22:39;1.10;;;1.00;;
6043;SDS011;3050;42.660;23.276;2023-11-19T05:25:08;0.83;;;0.83;;
6043;SDS011;3050;42.660;23.276;2023-11-19T05:27:37;0.77;;;0.77;;
6043;SDS011;3050;42.660;23.276;2023-11-19T05:30:06;1.17;;;1.17;;
6043;SDS011;3050;42.660;23.276;2023-11-19T05:32:36;1.03;;;1.00;;
6043;SDS011;3050;42.660;23.276;2023-11-19T05:35:08;1.00;;;1.00;;
6043;SDS011;3050;42.660;23.276;2023-11-19T05:37:36;1.10;;;1.10;;
6043;SDS011;3050;42.660;23.276;2023-11-19T05:40:09;1.07;;;0.97;;
6043;SDS011;3050;42.660;23.276;2023-11-19T05:42:40;0.90;;;0.90;;
6043;SDS011;3050;42.660;23.276;2023-11-19T05:45:11;0.63;;;0.63;;
6043;SDS011;3050;42.660;23.276;2023-11-19T05:47:40;0.43;;;0.43;;
6043;SDS011;3050;42.660;23.276;2023-11-19T05:50:11;1.30;;;1.20;;
6043;SDS011;3050;42.660;23.276;2023-11-19T05:52:39;1.23;;;1.00;;
6043;SDS011;3050;42.660;23.276;2023-11-19T05:55:08;1.07;;;0.97;;
6043;SDS011;3050;42.660;23.276;2023-11-19T05:57:37;0.77;;;0.77;;
6043;SDS011;3050;42.660;23.276;2023-11-19T06:00:05;0.93;;;0.93;;
6043;SDS011;3050;42.660;23.276;2023-11-19T06:02:36;2.63;;;1.07;;
6043;SDS011;3050;42.660;23.276;2023-11-19T06:05:06;0.70;;;0.70;;
6043;SDS011;3050;42.660;23.276;2023-11-19T06:07:36;1.30;;;1.00;;
6043;SDS011;3050;42.660;23.276;2023-11-19T06:10:04;1.13;;;0.90;;
6043;SDS011;3050;42.660;23.276;2023-11-19T06:12:35;1.43;;;1.00;;
6043;SDS011;3050;42.660;23.276;2023-11-19T06:15:07;0.77;;;0.77;;
6043;SDS011;3050;42.660;23.276;2023-11-19T06:17:38;2.17;;;1.27;;
6043;SDS011;3050;42.660;23.276;2023-11-19T06:20:06;1.50;;;1.40;;
6043;SDS011;3050;42.660;23.276;2023-11-19T06:22:37;1.20;;;1.20;;
6043;SDS011;3050;42.660;23.276;2023-11-19T06:25:07;0.77;;;0.70;;
6043;SDS011;3050;42.660;23.276;2023-11-19T06:27:39;1.00;;;1.00;;
6043;SDS011;3050;42.660;23.276;2023-11-19T06:30:53;1.30;;;1.30;;
6043;SDS011;3050;42.660;23.276;2023-11-19T06:33:21;2.07;;;1.93;;
6043;SDS011;3050;42.660;23.276;2023-11-19T06:35:55;2.07;;;1.60;;
6043;SDS011;3050;42.660;23.276;2023-11-19T06:38:31;1.47;;;1.37;;
6043;SDS011;3050;42.660;23.276;2023-11-19T06:41:04;3.13;;;1.73;;
6043;SDS011;3050;42.660;23.276;2023-11-19T06:43:40;1.70;;;1.30;;
6043;SDS011;3050;42.660;23.276;2023-11-19T06:46:17;2.73;;;2.23;;
6043;SDS011;3050;42.660;23.276;2023-11-19T06:48:48;0.73;;;0.73;;
6043;SDS011;3050;42.660;23.276;2023-11-19T06:51:40;1.50;;;1.23;;
6043;SDS011;3050;42.660;23.276;2023-11-19T06:54:14;1.37;;;1.37;;
6043;SDS011;3050;42.660;23.276;2023-11-19T06:56:49;1.50;;;1.40;;
6043;SDS011;3050;42.660;23.276;2023-11-19T06:59:31;1.40;;;1.30;;
6043;SDS011;3050;42.660;23.276;2023-11-19T07:02:16;1.23;;;1.13;;
6043;SDS011;3050;42.660;23.276;2023-11-19T07:04:50;1.33;;;1.23;;
6043;SDS011;3050;42.660;23.276;2023-11-19T07:07:28;1.80;;;1.17;;
6043;SDS011;3050;42.660;23.276;2023-11-19T07:10:07;1.00;;;1.00;;
6043;SDS011;3050;42.660;23.276;2023-11-19T07:12:38;1.80;;;1.70;;
6043;SDS011;3050;42.660;23.276;2023-11-19T07:15:14;1.30;;;1.20;;
6043;SDS011;3050;42.660;23.276;2023-11-19T07:17:46;1.67;;;1.23;;
6043;SDS011;3050;42.660;23.276;2023-11-19T07:20:16;1.00;;;1.00;;
6043;SDS011;3050;42.660;23.276;2023-11-19T07:28:24;1.33;;;1.23;;
6043;SDS011;3050;42.660;23.276;2023-11-19T07:31:02;2.43;;;2.23;;
6043;SDS011;3050;42.660;23.276;2023-11-19T07:33:33;5.07;;;3.50;;
6043;SDS011;3050;42.660;23.276;2023-11-19T07:36:02;3.17;;;2.90;;
6043;SDS011;3050;42.660;23.276;2023-11-19T07:38:32;2.80;;;2.30;;
6043;SDS011;3050;42.660;23.276;2023-11-19T07:41:01;5.10;;;3.13;;
6043;SDS011;3050;42.660;23.276;2023-11-19T07:43:29;3.10;;;2.23;;
6043;SDS011;3050;42.660;23.276;2023-11-19T07:46:14;1.70;;;1.60;;
6043;SDS011;3050;42.660;23.276;2023-11-19T07:48:49;3.40;;;2.10;;
6043;SDS011;3050;42.660;23.276;2023-11-19T07:51:20;3.20;;;2.47;;
6043;SDS011;3050;42.660;23.276;2023-11-19T07:53:48;4.07;;;3.73;;
6043;SDS011;3050;42.660;23.276;2023-11-19T07:56:18;2.10;;;1.80;;
6043;SDS011;3050;42.660;23.276;2023-11-19T07:58:49;1.90;;;1.80;;
6043;SDS011;3050;42.660;23.276;2023-11-19T08:01:23;1.50;;;1.37;;
6043;SDS011;3050;42.660;23.276;2023-11-19T08:03:51;2.40;;;1.80;;
6043;SDS011;3050;42.660;23.276;2023-11-19T08:06:21;9.33;;;3.87;;
6043;SDS011;3050;42.660;23.276;2023-11-19T08:08:49;5.43;;;2.80;;
6043;SDS011;3050;42.660;23.276;2023-11-19T08:11:20;9.97;;;3.33;;
6043;SDS011;3050;42.660;23.276;2023-11-19T08:13:54;17.87;;;5.63;;
6043;SDS011;3050;42.660;23.276;2023-11-19T08:16:23;20.20;;;7.23;;
6043;SDS011;3050;42.660;23.276;2023-11-19T08:18:55;1.90;;;1.80;;
6043;SDS011;3050;42.660;23.276;2023-11-19T08:21:23;2.40;;;2.20;;
6043;SDS011;3050;42.660;23.276;2023-11-19T08:23:53;2.00;;;1.87;;
6043;SDS011;3050;42.660;23.276;2023-11-19T08:26:26;1.43;;;1.43;;
6043;SDS011;3050;42.660;23.276;2023-11-19T08:28:57;2.17;;;2.07;;
6043;SDS011;3050;42.660;23.276;2023-11-19T08:31:31;1.83;;;1.73;;
6043;SDS011;3050;42.660;23.276;2023-11-19T08:34:00;2.17;;;1.97;;
6043;SDS011;3050;42.660;23.276;2023-11-19T08:36:34;1.67;;;1.57;;
6043;SDS011;3050;42.660;23.276;2023-11-19T08:39:06;1.83;;;1.73;;
6043;SDS011;3050;42.660;23.276;2023-11-19T08:41:48;2.23;;;1.93;;
6043;SDS011;3050;42.660;23.276;2023-11-19T08:47:13;2.87;;;2.43;;
6043;SDS011;3050;42.660;23.276;2023-11-19T08:49:57;4.63;;;2.27;;
6043;SDS011;3050;42.660;23.276;2023-11-19T08:52:46;1.97;;;1.83;;
6043;SDS011;3050;42.660;23.276;2023-11-19T08:55:38;1.53;;;1.43;;
6043;SDS011;3050;42.660;23.276;2023-11-19T09:04:53;2.00;;;1.87;;
6043;SDS011;3050;42.660;23.276;2023-11-19T09:07:29;9.00;;;2.00;;
6043;SDS011;3050;42.660;23.276;2023-11-19T09:10:04;1.80;;;1.70;;
6043;SDS011;3050;42.660;23.276;2023-11-19T09:12:34;5.33;;;1.40;;
6043;SDS011;3050;42.660;23.276;2023-11-19T09:15:06;1.77;;;1.67;;
6043;SDS011;3050;42.660;23.276;2023-11-19T09:17:40;2.10;;;2.00;;
6043;SDS011;3050;42.660;23.276;2023-11-19T09:20:16;3.47;;;2.70;;
6043;SDS011;3050;42.660;23.276;2023-11-19T09:23:00;4.20;;;2.37;;
6043;SDS011;3050;42.660;23.276;2023-11-19T09:26:08;1.60;;;1.50;;
6043;SDS011;3050;42.660;23.276;2023-11-19T09:28:58;3.13;;;1.23;;
6043;SDS011;3050;42.660;23.276;2023-11-19T09:31:32;1.47;;;1.37;;
6043;SDS011;3050;42.660;23.276;2023-11-19T09:34:05;1.70;;;1.60;;
6043;SDS011;3050;42.660;23.276;2023-11-19T09:36:52;3.53;;;2.20;;
6043;SDS011;3050;42.660;23.276;2023-11-19T09:39:30;1.43;;;1.33;;
6043;SDS011;3050;42.660;23.276;2023-11-19T09:42:20;3.37;;;2.20;;
6043;SDS011;3050;42.660;23.276;2023-11-19T09:45:04;6.13;;;3.90;;
6043;SDS011;3050;42.660;23.276;2023-11-19T09:50:26;3.77;;;3.10;;
6043;SDS011;3050;42.660;23.276;2023-11-19T09:53:13;6.90;;;3.40;;
6043;SDS011;3050;42.660;23.276;2023-11-19T09:55:45;5.30;;;3.50;;
6043;SDS011;3050;42.660;23.276;2023-11-19T09:58:27;6.20;;;2.47;;
6043;SDS011;3050;42.660;23.276;2023-11-19T10:03:53;0.80;;;0.80;;
6043;SDS011;3050;42.660;23.276;2023-11-19T10:06:38;1.70;;;1.60;;
6043;SDS011;3050;42.660;23.276;2023-11-19T10:09:13;2.60;;;1.77;;
6043;SDS011;3050;42.660;23.276;2023-11-19T10:11:52;1.77;;;1.47;;
6043;SDS011;3050;42.660;23.276;2023-11-19T10:14:28;2.50;;;1.57;;
6043;SDS011;3050;42.660;23.276;2023-11-19T10:17:01;1.63;;;1.40;;
6043;SDS011;3050;42.660;23.276;2023-11-19T10:19:39;1.40;;;1.40;;
6043;SDS011;3050;42.660;23.276;2023-11-19T10:22:08;1.43;;;1.33;;
6043;SDS011;3050;42.660;23.276;2023-11-19T10:25:01;1.90;;;1.33;;
6043;SDS011;3050;42.660;23.276;2023-11-19T10:27:30;2.03;;;1.60;;
6043;SDS011;3050;42.660;23.276;2023-11-19T10:39:22;2.07;;;1.97;;
6043;SDS011;3050;42.660;23.276;2023-11-19T10:41:54;1.23;;;1.23;;
6043;SDS011;3050;42.660;23.276;2023-11-19T10:44:32;1.30;;;1.30;;
6043;SDS011;3050;42.660;23.276;2023-11-19T10:51:45;1.93;;;1.83;;
6043;SDS011;3050;42.660;23.276;2023-11-19T10:53:54;1.40;;;1.30;;
6043;SDS011;3050;42.660;23.276;2023-11-19T10:56:34;4.97;;;1.90;;
6043;SDS011;3050;42.660;23.276;2023-11-19T10:59:15;1.60;;;1.50;;
6043;SDS011;3050;42.660;23.276;2023-11-19T11:01:53;1.37;;;1.30;;
6043;SDS011;3050;42.660;23.276;2023-11-19T11:07:39;1.77;;;1.67;;
6043;SDS011;3050;42.660;23.276;2023-11-19T11:10:37;1.90;;;1.43;;
6043;SDS011;3050;42.660;23.276;2023-11-19T11:13:40;2.03;;;1.60;;
6043;SDS011;3050;42.660;23.276;2023-11-19T11:16:23;1.10;;;1.10;;
6043;SDS011;3050;42.660;23.276;2023-11-19T11:19:11;1.50;;;1.43;;
6043;SDS011;3050;42.660;23.276;2023-11-19T11:21:41;1.33;;;1.30;;
6043;SDS011;3050;42.660;23.276;2023-11-19T11:27:18;1.60;;;1.50;;
6043;SDS011;3050;42.660;23.276;2023-11-19T11:30:26;1.50;;;1.50;;
6043;SDS011;3050;42.660;23.276;2023-11-19T11:33:10;2.00;;;1.60;;
6043;SDS011;3050;42.660;23.276;2023-11-19T11:36:01;0.97;;;0.97;;
6043;SDS011;3050;42.660;23.276;2023-11-19T11:38:49;2.67;;;1.77;;
6043;SDS011;3050;42.660;23.276;2023-11-19T11:41:36;1.30;;;1.20;;
6043;SDS011;3050;42.660;23.276;2023-11-19T11:44:39;1.80;;;1.57;;
6043;SDS011;3050;42.660;23.276;2023-11-19T11:50:48;1.67;;;1.57;;
6043;SDS011;3050;42.660;23.276;2023-11-19T11:53:29;2.43;;;2.23;;
6043;SDS011;3050;42.660;23.276;2023-11-19T11:56:03;1.47;;;1.23;;
6043;SDS011;3050;42.660;23.276;2023-11-19T11:58:38;2.47;;;1.83;;
6043;SDS011;3050;42.660;23.276;2023-11-19T12:01:19;3.00;;;2.07;;
6043;SDS011;3050;42.660;23.276;2023-11-19T12:03:55;2.37;;;2.13;;
6043;SDS011;3050;42.660;23.276;2023-11-19T12:06:27;1.67;;;1.57;;
6043;SDS011;3050;42.660;23.276;2023-11-19T12:09:03;7.37;;;3.57;;
6043;SDS011;3050;42.660;23.276;2023-11-19T12:11:32;1.83;;;1.70;;
6043;SDS011;3050;42.660;23.276;2023-11-19T12:14:19;5.70;;;4.10;;
6043;SDS011;3050;42.660;23.276;2023-11-19T12:17:36;1.77;;;1.67;;
6043;SDS011;3050;42.660;23.276;2023-11-19T12:20:20;1.20;;;1.20;;
6043;SDS011;3050;42.660;23.276;2023-11-19T12:22:52;2.90;;;1.57;;
6043;SDS011;3050;42.660;23.276;2023-11-19T12:25:20;3.03;;;1.80;;
6043;SDS011;3050;42.660;23.276;2023-11-19T12:27:51;1.10;;;1.10;;
6043;SDS011;3050;42.660;23.276;2023-11-19T12:30:34;1.17;;;1.17;;
6043;SDS011;3050;42.660;23.276;2023-11-19T12:33:07;1.27;;;1.03;;
6043;SDS011;3050;42.660;23.276;2023-11-19T12:35:40;1.43;;;1.07;;
6043;SDS011;3050;42.660;23.276;2023-11-19T12:38:17;1.80;;;1.27;;
6043;SDS011;3050;42.660;23.276;2023-11-19T12:41:06;2.50;;;1.70;;
6043;SDS011;3050;42.660;23.276;2023-11-19T12:43:37;1.90;;;1.30;;
6043;SDS011;3050;42.660;23.276;2023-11-19T12:46:17;3.80;;;2.07;;
6043;SDS011;3050;42.660;23.276;2023-11-19T12:48:45;1.87;;;1.77;;
6043;SDS011;3050;42.660;23.276;2023-11-19T12:51:15;1.67;;;1.50;;
6043;SDS011;3050;42.660;23.276;2023-11-19T12:53:51;1.80;;;1.70;;
6043;SDS011;3050;42.660;23.276;2023-11-19T12:56:19;1.93;;;1.83;;
6043;SDS011;3050;42.660;23.276;2023-11-19T12:58:48;1.37;;;1.27;;
6043;SDS011;3050;42.660;23.276;2023-11-19T13:01:17;1.50;;;1.43;;
6043;SDS011;3050;42.660;23.276;2023-11-19T13:04:05;1.77;;;1.47;;
6043;SDS011;3050;42.660;23.276;2023-11-19T13:06:44;4.53;;;1.50;;
6043;SDS011;3050;42.660;23.276;2023-11-19T13:09:28;1.00;;;1.00;;
6043;SDS011;3050;42.660;23.276;2023-11-19T13:11:56;1.97;;;1.87;;
6043;SDS011;3050;42.660;23.276;2023-11-19T13:14:36;1.60;;;1.50;;
6043;SDS011;3050;42.660;23.276;2023-11-19T13:17:14;1.50;;;1.40;;
6043;SDS011;3050;42.660;23.276;2023-11-19T13:19:48;1.53;;;1.50;;
6043;SDS011;3050;42.660;23.276;2023-11-19T13:22:19;1.10;;;0.93;;
6043;SDS011;3050;42.660;23.276;2023-11-19T13:24:51;1.03;;;1.03;;
6043;SDS011;3050;42.660;23.276;2023-11-19T13:27:21;1.73;;;1.47;;
6043;SDS011;3050;42.660;23.276;2023-11-19T13:29:58;1.33;;;0.90;;
6043;SDS011;3050;42.660;23.276;2023-11-19T13:32:32;1.87;;;1.77;;
6043;SDS011;3050;42.660;23.276;2023-11-19T13:35:00;0.90;;;0.90;;
6043;SDS011;3050;42.660;23.276;2023-11-19T13:37:30;1.10;;;1.10;;
6043;SDS011;3050;42.660;23.276;2023-11-19T13:40:01;1.90;;;1.10;;
6043;SDS011;3050;42.660;23.276;2023-11-19T13:45:08;1.17;;;1.17;;
6043;SDS011;3050;42.660;23.276;2023-11-19T13:47:44;0.93;;;0.93;;
6043;SDS011;3050;42.660;23.276;2023-11-19T13:50:17;3.33;;;1.73;;
6043;SDS011;3050;42.660;23.276;2023-11-19T13:52:45;1.20;;;1.20;;
6043;SDS011;3050;42.660;23.276;2023-11-19T13:55:16;1.43;;;1.03;;
6043;SDS011;3050;42.660;23.276;2023-11-19T13:57:44;1.50;;;1.40;;
6043;SDS011;3050;42.660;23.276;2023-11-19T14:00:23;1.47;;;1.13;;
6043;SDS011;3050;42.660;23.276;2023-11-19T14:02:51;1.90;;;1.80;;
6043;SDS011;3050;42.660;23.276;2023-11-19T14:05:21;1.40;;;1.40;;
6043;SDS011;3050;42.660;23.276;2023-11-19T14:07:50;2.03;;;1.53;;
6043;SDS011;3050;42.660;23.276;2023-11-19T14:10:24;1.33;;;1.00;;
6043;SDS011;3050;42.660;23.276;2023-11-19T14:12:55;3.83;;;1.83;;
6043;SDS011;3050;42.660;23.276;2023-11-19T14:15:25;2.30;;;2.00;;
6043;SDS011;3050;42.660;23.276;2023-11-19T14:17:55;1.70;;;1.60;;
6043;SDS011;3050;42.660;23.276;2023-11-19T14:20:23;2.70;;;1.47;;
6043;SDS011;3050;42.660;23.276;2023-11-19T14:22:51;2.50;;;1.40;;
6043;SDS011;3050;42.660;23.276;2023-11-19T14:25:24;2.23;;;1.57;;
6043;SDS011;3050;42.660;23.276;2023-11-19T14:27:54;1.70;;;1.60;;
6043;SDS011;3050;42.660;23.276;2023-11-19T14:30:23;2.00;;;1.67;;
6043;SDS011;3050;42.660;23.276;2023-11-19T14:32:53;2.23;;;1.30;;
6043;SDS011;3050;42.660;23.276;2023-11-19T14:35:23;3.27;;;1.30;;
6043;SDS011;3050;42.660;23.276;2023-11-19T14:37:52;1.77;;;1.67;;
6043;SDS011;3050;42.660;23.276;2023-11-19T14:40:26;3.80;;;2.50;;
6043;SDS011;3050;42.660;23.276;2023-11-19T14:42:53;1.37;;;1.30;;
6043;SDS011;3050;42.660;23.276;2023-11-19T14:45:25;2.80;;;1.47;;
6043;SDS011;3050;42.660;23.276;2023-11-19T14:47:53;2.20;;;1.57;;
6043;SDS011;3050;42.660;23.276;2023-11-19T14:50:28;1.80;;;1.70;;
6043;SDS011;3050;42.660;23.276;2023-11-19T14:53:15;1.73;;;1.63;;
6043;SDS011;3050;42.660;23.276;2023-11-19T14:55:48;1.10;;;1.10;;
6043;SDS011;3050;42.660;23.276;2023-11-19T15:00:07;2.10;;;1.37;;
6043;SDS011;3050;42.660;23.276;2023-11-19T15:01:32;2.53;;;1.40;;
6043;SDS011;3050;42.660;23.276;2023-11-19T15:06:58;1.70;;;1.43;;
6043;SDS011;3050;42.660;23.276;2023-11-19T15:09:28;1.50;;;1.40;;
6043;SDS011;3050;42.660;23.276;2023-11-19T15:12:38;1.23;;;1.20;;
6043;SDS011;3050;42.660;23.276;2023-11-19T15:15:16;1.87;;;1.73;;
6043;SDS011;3050;42.660;23.276;2023-11-19T15:17:50;3.03;;;1.43;;
6043;SDS011;3050;42.660;23.276;2023-11-19T15:20:22;4.40;;;2.47;;
6043;SDS011;3050;42.660;23.276;2023-11-19T15:22:56;3.33;;;2.03;;
6043;SDS011;3050;42.660;23.276;2023-11-19T15:25:38;3.20;;;2.50;;
6043;SDS011;3050;42.660;23.276;2023-11-19T15:28:16;2.80;;;2.17;;
6043;SDS011;3050;42.660;23.276;2023-11-19T15:30:51;2.23;;;2.03;;
6043;SDS011;3050;42.660;23.276;2023-11-19T15:33:27;2.07;;;1.83;;
6043;SDS011;3050;42.660;23.276;2023-11-19T15:36:06;3.57;;;1.90;;
6043;SDS011;3050;42.660;23.276;2023-11-19T15:38:39;5.93;;;2.43;;
6043;SDS011;3050;42.660;23.276;2023-11-19T15:41:19;1.47;;;1.47;;
6043;SDS011;3050;42.660;23.276;2023-11-19T15:44:11;9.83;;;2.53;;
6043;SDS011;3050;42.660;23.276;2023-11-19T15:49:15;6.00;;;3.43;;
6043;SDS011;3050;42.660;23.276;2023-11-19T15:52:05;4.63;;;3.53;;
6043;SDS011;3050;42.660;23.276;2023-11-19T15:54:58;5.80;;;3.80;;
6043;SDS011;3050;42.660;23.276;2023-11-19T15:57:45;6.57;;;3.50;;
6043;SDS011;3050;42.660;23.276;2023-11-19T16:00:49;6.40;;;3.63;;
6043;SDS011;3050;42.660;23.276;2023-11-19T16:03:39;7.37;;;3.10;;
6043;SDS011;3050;42.660;23.276;2023-11-19T16:06:36;5.13;;;2.37;;
6043;SDS011;3050;42.660;23.276;2023-11-19T16:09:25;3.43;;;3.10;;
6043;SDS011;3050;42.660;23.276;2023-11-19T16:12:12;5.47;;;3.80;;
6043;SDS011;3050;42.660;23.276;2023-11-19T16:14:47;4.00;;;2.43;;
6043;SDS011;3050;42.660;23.276;2023-11-19T16:20:55;3.07;;;1.90;;
6043;SDS011;3050;42.660;23.276;2023-11-19T16:23:44;3.80;;;2.00;;
6043;SDS011;3050;42.660;23.276;2023-11-19T16:26:27;3.90;;;2.70;;
6043;SDS011;3050;42.660;23.276;2023-11-19T16:32:50;5.83;;;2.90;;
6043;SDS011;3050;42.660;23.276;2023-11-19T16:38:56;4.40;;;3.10;;
6043;SDS011;3050;42.660;23.276;2023-11-19T16:48:20;7.57;;;4.00;;
6043;SDS011;3050;42.660;23.276;2023-11-19T16:51:26;11.57;;;3.47;;
6043;SDS011;3050;42.660;23.276;2023-11-19T17:06:54;12.57;;;4.40;;
6043;SDS011;3050;42.660;23.276;2023-11-19T17:09:34;5.90;;;4.87;;
6043;SDS011;3050;42.660;23.276;2023-11-19T17:12:11;4.20;;;3.83;;